Green Island, Iowa
Current Conditions -  °F | °C
As of 7:15 AM on Sunday 21 Dec 2014 (Local Time) from KSFY Reporting Station
Haze Haze  
Wind Chill: 29°   Ceiling: 900
Heat Index: 35°   Visibility: 5mi
Dew Point: 32°   Wind: 7mph
Humidity: 91%   Direction: 190°S
Pressure: 30.13"   Gusts: NA
Location:  42.0998°N, 90.3217°W
Report Text: KSFY 211315Z AUTO 19006KT 5SM BR OVC009 01/00 A3013 RMK AO2 T00140001
Loading
Personal Weather Stations






























Interactive Weather Map New forecast layout! Learn more

10-Day Weather Forecast

Advertisements
Track Severe Weather on mobile